Bartonville, Illinois
Current Conditions -  °F | °C
As of 2:54 AM on Friday 24 Oct 2014 (Local Time) from KPIA Reporting Station
Overcast Overcast  
Wind Chill: 56°   Ceiling: 1800
Heat Index: 56°   Visibility: 10mi
Dew Point: 47°   Wind: 3mph
Humidity: 72%   Direction: 260°W
Pressure: 30.06"   Gusts: NA
Location:  40.6465°N, 89.6859°W
Report Text: KPIA 240754Z 26003KT 10SM OVC018 13/08 A3006 RMK AO2 SLP178 T01330083
Loading
Personal Weather Stations






























Interactive Weather Map
Tropical Storm Tracking
New forecast layout! Learn more

10-Day Weather Forecast

Advertisements
Track Severe Weather on mobile